Main page
METAR-TAF:

METAR-TAF

Airports :

Wick Airport

Wick, Scotland

latitude: 58-27N, longitude: 003-05W, elevation: 39 m

Current weather observation

The report was made 25 minutes ago, at 15:20 UTC
Wind 23 kt from the West/Northwest
Temperature 9°C
Humidity 66%
Pressure 1019 hPa
Visibility 10 km or more
Few clouds at a height of 2200 ft

METAR: EGPC 211520Z 29023KT 9999 FEW022 09/03 Q1019

Time: 16:45 (15:45 UTC)

Forecast

The report was made 1 hour and 48 minutes ago, at 13:57 UTC
Forecast valid from 21 at 15 UTC to 21 at 24 UTC
Wind 12 kt from the West
Visibility 10 km or more
Scattered clouds at a height of 2500 ft
Temporary
from 21 at 15 UTC to 21 at 24 UTC
Wind 20 kt from the West with gusts up to 30 kt
Visibility: 6000 m
Broken clouds at a height of 1200 ft
rain showers

TAF: EGPC 211357Z 2115/2124 26012KT 9999 SCT025 TEMPO 2115/2124 27020G30KT 6000 SHRA BKN012

Weather observations and forecasts of more than 4000 airports (METAR and TAF reports).

The available stations are represented by yellow and red dots on the map.

Hover mouse over dot to see the name of the station.

Then click to see weather observations and forecasts.

To change the map : click on the green buttons with a black cross to zoom in, on the green button with a dash to zoom out, or on the green arrows for adjacent maps.


METAR-TAF: